Time;durP1;ratioP1;P1;durP2;ratioP2;P2;SDS_P1;SDS_P2;PMS_P1;PMS_P2;Temp;Humidity;BMP_temperature;BMP_pressure;BME280_temperature;BME280_humidity;BME280_pressure;Samples;Min_cycle;Max_cycle;Signal;HPM_P1;HPM_P2
2021/09/20 00:00:23;;;;;;;19.50;2.25;;;;;;;;;;5101975;28;20022;-82
2021/09/20 00:02:49;;;;;;;16.38;2.03;;;;;;;;;;5034575;28;20040;-83
2021/09/20 00:05:15;;;;;;;11.50;2.08;;;;;;;;;;5033804;28;20112;-83
2021/09/20 00:07:41;;;;;;;8.35;1.95;;;;;;;;;;5034266;28;20058;-82
2021/09/20 00:10:08;;;;;;;11.50;1.85;;;;;;;;;;5101596;28;20025;-70
2021/09/20 00:12:34;;;;;;;4.63;2.13;;;;;;;;;;5032547;28;20449;-68
2021/09/20 00:15:00;;;;;;;10.55;2.20;;;;;;;;;;5032502;28;20026;-70
2021/09/20 00:17:26;;;;;;;7.32;1.98;;;;;;;;;;5101391;28;20033;-68
2021/09/20 00:19:52;;;;;;;9.07;2.30;;;;;;;;;;5032443;28;20057;-69
2021/09/20 00:22:18;;;;;;;12.50;2.58;;;;;;;;;;5101010;28;20029;-68
2021/09/20 00:24:44;;;;;;;7.53;2.50;;;;;;;;;;5031731;28;20556;-68
2021/09/20 00:27:12;;;;;;;14.25;2.35;;;;;;;;;;5032729;28;20079;-84
2021/09/20 00:29:38;;;;;;;11.73;2.47;;;;;;;;;;5032431;28;20037;-80
2021/09/20 00:32:05;;;;;;;13.23;2.25;;;;;;;;;;5033298;28;20072;-85
2021/09/20 00:34:31;;;;;;;7.30;2.20;;;;;;;;;;5101332;28;20406;-79
2021/09/20 00:36:57;;;;;;;13.93;2.35;;;;;;;;;;5032686;28;20026;-81
2021/09/20 00:39:23;;;;;;;9.48;2.20;;;;;;;;;;5092464;28;20026;-78
2021/09/20 00:41:49;;;;;;;8.95;2.05;;;;;;;;;;5081765;28;20614;-75
2021/09/20 00:44:15;;;;;;;31.92;2.60;;;;;;;;;;5012951;28;20109;-75
2021/09/20 00:46:41;;;;;;;24.50;2.50;;;;;;;;;;5080833;28;20117;-81
2021/09/20 00:49:07;;;;;;;13.32;2.20;;;;;;;;;;5012886;28;20132;-80
2021/09/20 00:51:33;;;;;;;4.18;2.03;;;;;;;;;;5013167;28;20037;-77
2021/09/20 00:53:59;;;;;;;4.22;2.15;;;;;;;;;;5080735;28;20116;-68
2021/09/20 00:56:27;;;;;;;3.78;2.35;;;;;;;;;;5080171;28;20030;-69
2021/09/20 00:58:53;;;;;;;9.32;2.63;;;;;;;;;;5080053;28;20030;-67
2021/09/20 01:01:19;;;;;;;14.27;2.22;;;;;;;;;;5012577;28;20022;-67
2021/09/20 01:03:45;;;;;;;3.80;2.40;;;;;;;;;;5013353;28;20038;-80
2021/09/20 01:06:11;;;;;;;15.15;3.47;;;;;;;;;;5015169;28;20176;-83
2021/09/20 01:08:37;;;;;;;15.27;2.85;;;;;;;;;;5012583;28;20075;-78
2021/09/20 01:11:03;;;;;;;14.40;2.72;;;;;;;;;;5082886;28;20022;-77
2021/09/20 01:13:29;;;;;;;15.40;2.47;;;;;;;;;;5012810;28;20369;-82
2021/09/20 01:15:59;;;;;;;17.20;2.50;;;;;;;;;;5012746;28;20075;-70
2021/09/20 01:18:25;;;;;;;15.50;2.65;;;;;;;;;;5011880;28;20022;-74
2021/09/20 01:20:51;;;;;;;11.40;2.70;;;;;;;;;;5012006;28;20065;-82
2021/09/20 01:23:18;;;;;;;17.13;2.42;;;;;;;;;;5080299;28;20465;-79
2021/09/20 01:25:44;;;;;;;5.75;2.13;;;;;;;;;;5012074;28;20022;-77
2021/09/20 01:28:10;;;;;;;14.93;2.08;;;;;;;;;;5012275;28;20037;-83
2021/09/20 01:30:36;;;;;;;12.02;2.20;;;;;;;;;;5012753;28;20030;-80
2021/09/20 01:33:02;;;;;;;8.30;2.35;;;;;;;;;;5013069;28;20022;-82
2021/09/20 01:35:29;;;;;;;10.18;2.38;;;;;;;;;;5080703;28;20029;-83
2021/09/20 01:37:55;;;;;;;10.90;2.47;;;;;;;;;;5011108;28;20384;-68
2021/09/20 01:40:21;;;;;;;15.68;2.50;;;;;;;;;;5050100;27;20027;-71
2021/09/20 01:42:48;;;;;;;4.85;2.20;;;;;;;;;;5135524;27;20055;-69
2021/09/20 01:45:14;;;;;;;7.00;2.58;;;;;;;;;;5117271;27;20084;-70
2021/09/20 01:47:41;;;;;;;3.38;2.30;;;;;;;;;;5135556;27;20106;-70
2021/09/20 01:50:08;;;;;;;10.48;2.38;;;;;;;;;;5135677;27;20031;-70
2021/09/20 01:52:34;;;;;;;4.85;2.42;;;;;;;;;;5135376;27;20023;-73
2021/09/20 01:55:00;;;;;;;3.20;2.15;;;;;;;;;;5135329;27;20493;-69
2021/09/20 01:57:26;;;;;;;5.88;2.50;;;;;;;;;;5135653;27;20023;-70
2021/09/20 01:59:52;;;;;;;7.85;2.80;;;;;;;;;;5071758;27;20121;-69
2021/09/20 02:02:19;;;;;;;6.07;2.70;;;;;;;;;;5011448;28;20030;-70
2021/09/20 02:04:45;;;;;;;5.38;2.40;;;;;;;;;;5079226;28;20038;-69
2021/09/20 02:07:11;;;;;;;5.60;2.78;;;;;;;;;;5011330;28;20525;-71
2021/09/20 02:09:37;;;;;;;14.05;3.13;;;;;;;;;;5079308;28;20121;-82
2021/09/20 02:12:03;;;;;;;25.98;3.08;;;;;;;;;;5079613;28;20134;-86
2021/09/20 02:14:29;;;;;;;8.57;2.80;;;;;;;;;;5079766;28;20025;-81
2021/09/20 02:16:55;;;;;;;19.17;2.60;;;;;;;;;;5011675;28;20358;-77
2021/09/20 02:19:21;;;;;;;7.82;2.40;;;;;;;;;;5011180;28;20038;-80
2021/09/20 02:21:47;;;;;;;6.03;2.70;;;;;;;;;;5079186;28;20096;-81
2021/09/20 02:24:13;;;;;;;10.25;2.53;;;;;;;;;;5012585;28;20030;-84
2021/09/20 02:26:41;;;;;;;9.73;2.67;;;;;;;;;;5080324;28;20042;-88
2021/09/20 02:29:07;;;;;;;30.33;2.72;;;;;;;;;;5013739;28;20033;-81
2021/09/20 02:31:33;;;;;;;19.10;2.40;;;;;;;;;;5080234;28;20022;-83
2021/09/20 02:33:59;;;;;;;13.48;2.55;;;;;;;;;;5014637;28;20441;-80
2021/09/20 02:36:25;;;;;;;13.30;2.70;;;;;;;;;;5081287;28;20028;-81
2021/09/20 02:38:51;;;;;;;16.00;2.92;;;;;;;;;;5080089;28;20033;-75
2021/09/20 02:41:17;;;;;;;10.60;2.38;;;;;;;;;;5010976;28;20029;-78
2021/09/20 02:43:44;;;;;;;6.93;2.58;;;;;;;;;;5011294;28;20030;-85
2021/09/20 02:46:10;;;;;;;8.18;2.00;;;;;;;;;;5011339;28;20049;-75
2021/09/20 02:48:36;;;;;;;9.88;2.50;;;;;;;;;;5010366;28;20029;-76
2021/09/20 02:51:02;;;;;;;10.30;2.55;;;;;;;;;;5019035;28;20029;-81
2021/09/20 02:53:28;;;;;;;6.35;2.13;;;;;;;;;;5031402;28;20037;-84
2021/09/20 02:55:54;;;;;;;14.30;2.65;;;;;;;;;;5031349;28;20715;-87
2021/09/20 02:58:20;;;;;;;7.25;2.65;;;;;;;;;;5031136;28;20029;-75
2021/09/20 03:00:46;;;;;;;9.63;2.50;;;;;;;;;;5030513;28;20096;-73
2021/09/20 03:03:12;;;;;;;7.32;2.60;;;;;;;;;;5030228;28;20531;-77
2021/09/20 03:05:38;;;;;;;8.88;2.13;;;;;;;;;;5098481;28;20025;-77
2021/09/20 03:08:05;;;;;;;2.65;2.05;;;;;;;;;;5014200;28;20034;-79
2021/09/20 03:10:32;;;;;;;3.33;2.08;;;;;;;;;;5011470;28;20034;-83
2021/09/20 03:12:58;;;;;;;2.75;1.77;;;;;;;;;;5011776;28;20029;-82
2021/09/20 03:15:24;;;;;;;8.30;2.13;;;;;;;;;;5011935;28;20032;-86
2021/09/20 03:17:50;;;;;;;3.83;2.42;;;;;;;;;;5011127;28;20105;-81
2021/09/20 03:20:16;;;;;;;12.70;2.47;;;;;;;;;;5010335;28;20045;-81
2021/09/20 03:22:42;;;;;;;7.82;2.35;;;;;;;;;;5010950;28;20067;-80
2021/09/20 03:25:09;;;;;;;5.70;2.38;;;;;;;;;;5028929;28;20090;-81
2021/09/20 03:27:35;;;;;;;5.57;2.20;;;;;;;;;;5032656;28;20430;-79
2021/09/20 03:30:01;;;;;;;4.53;2.42;;;;;;;;;;5101979;28;20465;-90
2021/09/20 03:32:27;;;;;;;7.07;2.00;;;;;;;;;;5033410;28;20497;-86
2021/09/20 03:34:53;;;;;;;5.68;2.05;;;;;;;;;;5099463;28;20068;-83
2021/09/20 03:37:19;;;;;;;5.30;2.20;;;;;;;;;;5030975;28;20025;-88
2021/09/20 03:39:45;;;;;;;8.85;1.85;;;;;;;;;;5030846;28;20045;-79
2021/09/20 03:42:11;;;;;;;7.65;2.20;;;;;;;;;;5098220;28;20021;-85
2021/09/20 03:44:37;;;;;;;8.38;1.90;;;;;;;;;;5031019;28;20114;-84
2021/09/20 03:47:03;;;;;;;7.82;2.25;;;;;;;;;;5039046;28;20064;-87
2021/09/20 03:49:29;;;;;;;2.45;2.25;;;;;;;;;;5105158;28;20044;-89
2021/09/20 03:51:55;;;;;;;9.02;1.83;;;;;;;;;;5098108;28;20540;-78
2021/09/20 03:54:21;;;;;;;5.40;2.25;;;;;;;;;;5029901;28;20025;-82
2021/09/20 03:56:47;;;;;;;6.93;2.30;;;;;;;;;;5030035;28;20380;-82
2021/09/20 03:59:13;;;;;;;7.57;2.10;;;;;;;;;;5097833;28;20036;-80
2021/09/20 04:01:39;;;;;;;3.53;2.00;;;;;;;;;;5101285;28;20021;-75
2021/09/20 04:04:05;;;;;;;3.63;2.03;;;;;;;;;;5033354;28;20501;-82
2021/09/20 04:06:31;;;;;;;4.53;2.00;;;;;;;;;;5034570;28;20029;-86
2021/09/20 04:09:01;;;;;;;4.57;2.17;;;;;;;;;;5092196;28;20026;-86
2021/09/20 04:11:27;;;;;;;2.25;2.05;;;;;;;;;;5015627;28;20014;-88
2021/09/20 04:13:53;;;;;;;8.07;2.10;;;;;;;;;;5013947;28;20030;-84
2021/09/20 04:16:19;;;;;;;5.22;1.90;;;;;;;;;;5013118;28;20032;-76
2021/09/20 04:18:45;;;;;;;4.97;1.90;;;;;;;;;;5013059;28;20029;-77
2021/09/20 04:21:11;;;;;;;5.80;2.03;;;;;;;;;;5012831;28;20048;-81
2021/09/20 04:23:37;;;;;;;7.93;2.20;;;;;;;;;;5098009;28;20055;-82
2021/09/20 04:26:03;;;;;;;2.33;2.00;;;;;;;;;;5098068;28;20033;-83
2021/09/20 04:28:29;;;;;;;3.35;1.80;;;;;;;;;;5013303;28;20034;-82
2021/09/20 04:30:55;;;;;;;4.80;2.05;;;;;;;;;;5013065;28;20022;-80
2021/09/20 04:33:21;;;;;;;2.20;1.88;;;;;;;;;;5012681;28;20026;-80
2021/09/20 04:35:48;;;;;;;7.70;2.45;;;;;;;;;;5098186;28;20399;-77
2021/09/20 04:38:14;;;;;;;3.33;2.17;;;;;;;;;;5097783;28;20018;-82
2021/09/20 04:40:41;;;;;;;2.45;2.10;;;;;;;;;;5012895;28;20109;-82
2021/09/20 04:43:08;;;;;;;2.83;1.95;;;;;;;;;;5028920;28;20033;-80
2021/09/20 04:45:35;;;;;;;4.80;2.03;;;;;;;;;;5032872;28;20484;-79
2021/09/20 04:48:01;;;;;;;3.42;2.13;;;;;;;;;;5032233;28;20104;-76
2021/09/20 04:50:27;;;;;;;2.95;1.92;;;;;;;;;;5032482;28;20026;-80
2021/09/20 04:52:53;;;;;;;5.57;2.30;;;;;;;;;;5101159;28;20025;-78
2021/09/20 04:55:19;;;;;;;3.25;2.15;;;;;;;;;;5032521;28;20086;-77
2021/09/20 04:57:45;;;;;;;4.38;2.20;;;;;;;;;;5093780;28;20022;-79
2021/09/20 05:00:12;;;;;;;1.98;1.80;;;;;;;;;;5012527;28;20025;-77
2021/09/20 05:02:38;;;;;;;3.60;2.30;;;;;;;;;;5012353;28;20512;-78
2021/09/20 05:05:04;;;;;;;3.33;2.10;;;;;;;;;;5012349;28;20038;-80
2021/09/20 05:07:31;;;;;;;5.10;2.42;;;;;;;;;;5012612;28;20369;-80
2021/09/20 05:09:57;;;;;;;1.80;1.70;;;;;;;;;;5012640;28;20361;-81
2021/09/20 05:12:23;;;;;;;2.85;2.40;;;;;;;;;;5011551;28;20022;-81
2021/09/20 05:14:48;;;;;;;3.05;2.17;;;;;;;;;;5080805;28;20443;-79
2021/09/20 05:17:14;;;;;;;3.05;2.13;;;;;;;;;;5012184;28;20470;-78
2021/09/20 05:19:40;;;;;;;9.05;2.20;;;;;;;;;;5079840;28;20018;-77
2021/09/20 05:22:06;;;;;;;3.53;2.05;;;;;;;;;;5012988;28;20406;-90
2021/09/20 05:24:33;;;;;;;3.35;2.25;;;;;;;;;;5013404;28;20473;-88
2021/09/20 05:26:59;;;;;;;2.63;2.28;;;;;;;;;;5081214;28;20075;-84
2021/09/20 05:29:25;;;;;;;2.58;2.22;;;;;;;;;;5012007;28;20026;-79
2021/09/20 05:31:51;;;;;;;2.90;2.50;;;;;;;;;;5012574;28;20018;-77
2021/09/20 05:34:18;;;;;;;2.20;1.90;;;;;;;;;;5011771;28;20491;-78
2021/09/20 05:36:44;;;;;;;2.00;1.80;;;;;;;;;;5012708;28;20018;-80
2021/09/20 05:39:10;;;;;;;4.00;2.08;;;;;;;;;;5011946;28;20026;-80
2021/09/20 05:41:36;;;;;;;4.10;2.08;;;;;;;;;;5018648;28;20024;-82
2021/09/20 05:44:03;;;;;;;4.28;2.15;;;;;;;;;;5031442;28;20033;-78
2021/09/20 05:46:29;;;;;;;4.95;2.20;;;;;;;;;;5031601;28;20377;-77
2021/09/20 05:48:54;;;;;;;5.00;2.25;;;;;;;;;;5031541;28;20476;-86
2021/09/20 05:51:21;;;;;;;2.78;2.40;;;;;;;;;;5100159;28;20022;-78
2021/09/20 05:53:47;;;;;;;4.30;2.72;;;;;;;;;;5099545;28;20070;-78
2021/09/20 05:56:13;;;;;;;2.50;2.22;;;;;;;;;;5031445;28;20017;-83
2021/09/20 05:58:40;;;;;;;2.40;1.92;;;;;;;;;;5099473;28;20037;-78
2021/09/20 06:01:06;;;;;;;3.83;2.15;;;;;;;;;;5031277;28;20028;-83
2021/09/20 06:03:32;;;;;;;3.28;2.42;;;;;;;;;;5031119;28;20034;-83
2021/09/20 06:05:58;;;;;;;9.90;2.20;;;;;;;;;;5100037;28;20055;-80
2021/09/20 06:08:24;;;;;;;2.90;2.60;;;;;;;;;;5031358;28;20025;-84
2021/09/20 06:10:50;;;;;;;4.88;1.85;;;;;;;;;;5031326;28;20394;-76
2021/09/20 06:13:16;;;;;;;4.25;1.90;;;;;;;;;;5031236;28;20104;-85
2021/09/20 06:15:42;;;;;;;1.98;1.77;;;;;;;;;;5031284;28;20033;-82
2021/09/20 06:18:08;;;;;;;2.35;2.00;;;;;;;;;;5031149;28;20022;-83
2021/09/20 06:20:35;;;;;;;3.67;2.08;;;;;;;;;;5030708;28;20045;-77
2021/09/20 06:23:01;;;;;;;3.75;2.05;;;;;;;;;;5030231;28;20021;-82
2021/09/20 06:25:27;;;;;;;5.10;2.42;;;;;;;;;;5031032;28;20086;-75
2021/09/20 06:27:53;;;;;;;7.85;2.72;;;;;;;;;;5030876;28;20037;-79
2021/09/20 06:30:19;;;;;;;6.50;2.90;;;;;;;;;;5029290;28;20399;-78
2021/09/20 06:32:45;;;;;;;7.65;3.00;;;;;;;;;;5030938;28;20100;-86
2021/09/20 06:35:12;;;;;;;12.63;3.30;;;;;;;;;;5031011;28;20025;-74
2021/09/20 06:37:39;;;;;;;39.65;3.80;;;;;;;;;;5031214;28;20060;-68
2021/09/20 06:40:05;;;;;;;18.30;3.70;;;;;;;;;;5030392;28;20033;-69
2021/09/20 06:42:31;;;;;;;14.05;3.95;;;;;;;;;;5073341;27;20026;-78
2021/09/20 06:44:57;;;;;;;38.28;5.30;;;;;;;;;;5134384;27;20035;-79
2021/09/20 06:47:23;;;;;;;40.50;4.82;;;;;;;;;;5134163;27;20020;-68
2021/09/20 06:49:50;;;;;;;46.53;5.18;;;;;;;;;;5102385;27;20392;-69
2021/09/20 06:52:18;;;;;;;43.78;5.05;;;;;;;;;;5030513;28;20105;-69
2021/09/20 06:54:44;;;;;;;15.50;4.88;;;;;;;;;;5030457;28;20021;-70
2021/09/20 06:57:10;;;;;;;20.17;4.82;;;;;;;;;;5030857;28;20162;-71
2021/09/20 06:59:36;;;;;;;16.13;5.93;;;;;;;;;;5030752;28;20096;-70
2021/09/20 07:02:02;;;;;;;11.52;5.30;;;;;;;;;;5030267;28;20144;-71
2021/09/20 07:04:28;;;;;;;11.70;4.47;;;;;;;;;;5014089;28;20054;-70
2021/09/20 07:06:54;;;;;;;8.07;4.50;;;;;;;;;;5010216;28;20073;-71
2021/09/20 07:09:20;;;;;;;7.93;5.03;;;;;;;;;;5077749;28;20450;-72
2021/09/20 07:11:46;;;;;;;6.03;4.07;;;;;;;;;;5023117;28;20044;-69
2021/09/20 07:14:12;;;;;;;8.40;4.88;;;;;;;;;;5030182;28;20416;-70
2021/09/20 07:16:38;;;;;;;7.97;4.90;;;;;;;;;;5098052;28;20029;-68
2021/09/20 07:19:04;;;;;;;10.10;4.60;;;;;;;;;;5030779;28;20026;-71
2021/09/20 07:21:30;;;;;;;6.43;4.53;;;;;;;;;;5098247;28;20052;-71
2021/09/20 07:23:56;;;;;;;12.50;4.38;;;;;;;;;;5030030;28;20095;-71
2021/09/20 07:26:23;;;;;;;10.38;4.53;;;;;;;;;;5030294;28;20061;-71
2021/09/20 07:28:49;;;;;;;10.45;5.03;;;;;;;;;;5030047;28;20472;-71
2021/09/20 07:31:16;;;;;;;15.52;4.80;;;;;;;;;;5030051;28;20047;-71
2021/09/20 07:33:42;;;;;;;8.88;4.75;;;;;;;;;;5029598;28;20096;-71
2021/09/20 07:36:08;;;;;;;9.88;4.57;;;;;;;;;;5032210;28;20112;-70
2021/09/20 07:38:34;;;;;;;5.95;4.10;;;;;;;;;;5033640;28;20101;-72
2021/09/20 07:41:00;;;;;;;12.20;4.78;;;;;;;;;;5033591;28;20029;-71
2021/09/20 07:43:26;;;;;;;8.02;4.80;;;;;;;;;;5116009;27;20019;-71
2021/09/20 07:45:52;;;;;;;14.60;4.50;;;;;;;;;;5138081;27;20058;-71
2021/09/20 07:48:18;;;;;;;7.55;4.72;;;;;;;;;;5137827;27;20034;-71
2021/09/20 07:50:44;;;;;;;5.78;4.32;;;;;;;;;;5137778;27;20035;-72
2021/09/20 07:53:10;;;;;;;11.00;4.75;;;;;;;;;;5137629;27;20028;-71
2021/09/20 07:55:36;;;;;;;13.45;5.13;;;;;;;;;;5137768;27;20026;-71
2021/09/20 07:58:04;;;;;;;6.78;4.88;;;;;;;;;;5137377;27;20023;-71
2021/09/20 08:00:30;;;;;;;16.08;5.57;;;;;;;;;;5067939;27;20025;-70
2021/09/20 08:02:56;;;;;;;8.00;4.82;;;;;;;;;;5033123;28;20022;-72
2021/09/20 08:05:21;;;;;;;14.70;5.00;;;;;;;;;;5061359;27;20470;-71
2021/09/20 08:07:47;;;;;;;8.13;5.25;;;;;;;;;;5047307;27;20049;-71
2021/09/20 08:10:13;;;;;;;7.20;5.07;;;;;;;;;;5033608;28;20033;-71
2021/09/20 08:12:41;;;;;;;10.32;5.57;;;;;;;;;;5033182;28;20083;-70
2021/09/20 08:15:07;;;;;;;6.35;4.95;;;;;;;;;;5059044;27;20049;-70
2021/09/20 08:17:33;;;;;;;10.25;5.30;;;;;;;;;;5085841;27;20031;-70
2021/09/20 08:20:00;;;;;;;9.73;6.05;;;;;;;;;;5050293;27;20094;-70
2021/09/20 08:22:26;;;;;;;10.95;5.57;;;;;;;;;;5055254;27;20389;-70
2021/09/20 08:24:52;;;;;;;10.20;5.95;;;;;;;;;;5012996;28;20423;-70
2021/09/20 08:27:18;;;;;;;7.45;5.68;;;;;;;;;;5013252;28;20026;-70
2021/09/20 08:29:44;;;;;;;10.55;6.32;;;;;;;;;;5112629;27;20024;-70
2021/09/20 08:32:10;;;;;;;13.52;6.82;;;;;;;;;;5137219;27;20035;-71
2021/09/20 08:34:37;;;;;;;10.32;6.45;;;;;;;;;;5118353;27;20027;-71
2021/09/20 08:37:03;;;;;;;10.32;6.45;;;;;;;;;;5097730;27;20418;-70
2021/09/20 08:39:29;;;;;;;7.22;6.03;;;;;;;;;;5118749;27;20102;-70
2021/09/20 08:41:56;;;;;;;15.55;7.18;;;;;;;;;;5053788;27;20019;-70
2021/09/20 08:44:23;;;;;;;13.38;6.82;;;;;;;;;;5135741;27;20031;-71
2021/09/20 08:46:51;;;;;;;9.15;7.10;;;;;;;;;;5136644;27;20019;-70
2021/09/20 08:49:19;;;;;;;7.97;6.20;;;;;;;;;;5136821;27;20431;-71
2021/09/20 08:51:45;;;;;;;10.48;7.55;;;;;;;;;;5136931;27;20023;-70
2021/09/20 08:54:11;;;;;;;9.85;7.53;;;;;;;;;;5136546;27;20023;-71
2021/09/20 08:56:37;;;;;;;10.02;7.00;;;;;;;;;;5136700;27;20490;-70
2021/09/20 08:59:03;;;;;;;10.30;6.55;;;;;;;;;;5136903;27;20062;-70
2021/09/20 09:01:31;;;;;;;7.20;6.43;;;;;;;;;;5136572;27;20047;-70
2021/09/20 09:04:24;;;;;;;8.90;6.30;;;;;;;;;;5117811;27;20027;-70
2021/09/20 09:07:10;;;;;;;9.77;6.72;;;;;;;;;;5134007;27;20031;-71
2021/09/20 09:09:40;;;;;;;12.27;6.47;;;;;;;;;;5136262;27;20027;-71
2021/09/20 09:12:12;;;;;;;8.65;6.45;;;;;;;;;;5058162;27;20033;-70
2021/09/20 09:14:43;;;;;;;7.72;6.80;;;;;;;;;;5032055;28;20629;-70
2021/09/20 09:17:29;;;;;;;13.82;6.70;;;;;;;;;;5031972;28;20022;-71
2021/09/20 09:20:11;;;;;;;11.55;6.97;;;;;;;;;;5031798;28;20029;-71
2021/09/20 09:22:43;;;;;;;8.45;6.60;;;;;;;;;;5032087;28;20044;-71
2021/09/20 09:25:10;;;;;;;9.50;6.32;;;;;;;;;;5117666;27;20042;-70
2021/09/20 09:27:37;;;;;;;10.90;7.05;;;;;;;;;;5117971;27;20028;-70
2021/09/20 09:30:08;;;;;;;11.05;6.72;;;;;;;;;;5136117;27;20023;-71
2021/09/20 09:32:34;;;;;;;9.90;7.07;;;;;;;;;;5136016;27;20463;-70
2021/09/20 09:35:03;;;;;;;15.88;7.32;;;;;;;;;;5085000;27;20498;-70
2021/09/20 09:37:30;;;;;;;8.45;7.07;;;;;;;;;;5117446;27;20019;-69
2021/09/20 09:40:07;;;;;;;11.95;6.90;;;;;;;;;;5135786;27;20371;-70
2021/09/20 09:42:34;;;;;;;7.10;6.13;;;;;;;;;;5117439;27;20106;-71
2021/09/20 09:45:13;;;;;;;8.07;6.60;;;;;;;;;;5098429;27;20095;-71
2021/09/20 09:47:39;;;;;;;13.07;6.60;;;;;;;;;;5031676;28;20026;-71
2021/09/20 09:50:16;;;;;;;7.70;6.50;;;;;;;;;;5031323;28;20033;-71
2021/09/20 09:52:43;;;;;;;9.10;6.82;;;;;;;;;;5031573;28;20366;-71
2021/09/20 09:55:10;;;;;;;8.65;6.13;;;;;;;;;;5031674;28;20080;-71
2021/09/20 09:57:36;;;;;;;8.05;6.43;;;;;;;;;;5031262;28;20048;-71
2021/09/20 10:00:05;;;;;;;8.27;6.10;;;;;;;;;;5030873;28;20033;-71
2021/09/20 10:02:32;;;;;;;11.07;6.72;;;;;;;;;;5099456;28;20091;-70
2021/09/20 10:05:03;;;;;;;10.90;6.43;;;;;;;;;;5031335;28;20029;-71
2021/09/20 10:07:32;;;;;;;11.68;7.07;;;;;;;;;;5031529;28;20032;-71
2021/09/20 10:09:59;;;;;;;9.60;6.63;;;;;;;;;;5031253;28;20086;-70
2021/09/20 10:12:29;;;;;;;9.93;6.35;;;;;;;;;;5013810;28;20527;-71
2021/09/20 10:14:56;;;;;;;10.05;6.72;;;;;;;;;;5010965;28;20381;-71
2021/09/20 10:17:24;;;;;;;12.73;7.03;;;;;;;;;;5011910;28;20033;-71
2021/09/20 10:19:51;;;;;;;15.38;6.60;;;;;;;;;;5011458;28;20030;-70
2021/09/20 10:22:18;;;;;;;11.00;7.60;;;;;;;;;;5011005;28;20060;-71
2021/09/20 10:24:46;;;;;;;8.57;6.88;;;;;;;;;;5075006;27;20507;-71
2021/09/20 10:27:13;;;;;;;9.55;7.28;;;;;;;;;;5061724;27;20022;-70
2021/09/20 10:29:40;;;;;;;9.95;6.53;;;;;;;;;;5031000;28;20532;-68
2021/09/20 10:32:06;;;;;;;10.77;7.13;;;;;;;;;;5030755;28;20033;-68
2021/09/20 10:34:32;;;;;;;13.25;7.15;;;;;;;;;;5030053;28;20048;-67
2021/09/20 10:37:00;;;;;;;9.75;7.65;;;;;;;;;;5030154;28;20026;-67
2021/09/20 10:39:45;;;;;;;9.82;7.28;;;;;;;;;;5030523;28;20081;-67
2021/09/20 10:42:11;;;;;;;13.48;7.90;;;;;;;;;;5106561;27;20131;-67
2021/09/20 10:44:41;;;;;;;12.65;7.18;;;;;;;;;;5133851;27;20438;-67
2021/09/20 10:47:14;;;;;;;9.73;7.38;;;;;;;;;;5134376;27;20023;-67
2021/09/20 10:49:50;;;;;;;15.77;7.50;;;;;;;;;;5134206;27;20019;-67
2021/09/20 10:52:16;;;;;;;11.65;6.43;;;;;;;;;;5115695;27;20525;-68
2021/09/20 10:55:01;;;;;;;8.23;6.70;;;;;;;;;;5115707;27;20656;-67
2021/09/20 10:57:27;;;;;;;10.88;7.50;;;;;;;;;;5115691;27;20088;-68
2021/09/20 11:00:13;;;;;;;9.88;7.05;;;;;;;;;;5134018;27;20064;-67
2021/09/20 11:02:39;;;;;;;13.75;7.35;;;;;;;;;;5133877;27;20034;-67
2021/09/20 11:05:09;;;;;;;13.30;6.65;;;;;;;;;;5133720;27;20027;-68
2021/09/20 11:07:45;;;;;;;11.65;7.00;;;;;;;;;;5115678;28;20023;-72
2021/09/20 11:10:11;;;;;;;8.40;6.50;;;;;;;;;;5114851;27;20045;-67
2021/09/20 11:12:56;;;;;;;15.75;5.80;;;;;;;;;;5115387;28;20080;-68
2021/09/20 11:15:23;;;;;;;12.95;6.55;;;;;;;;;;5133629;27;20642;-67
2021/09/20 11:17:50;;;;;;;8.35;5.90;;;;;;;;;;5133968;28;20062;-68
2021/09/20 11:20:18;;;;;;;11.75;5.80;;;;;;;;;;5133436;28;20068;-67
2021/09/20 11:22:44;;;;;;;7.82;5.78;;;;;;;;;;5133683;28;20471;-67
2021/09/20 11:25:13;;;;;;;10.13;5.80;;;;;;;;;;5133313;28;20114;-67
2021/09/20 11:27:39;;;;;;;7.72;5.82;;;;;;;;;;5115272;28;20023;-67
2021/09/20 11:30:08;;;;;;;8.15;5.90;;;;;;;;;;5133827;28;20374;-67
2021/09/20 11:32:41;;;;;;;8.52;5.97;;;;;;;;;;5115162;28;20019;-68
2021/09/20 11:35:09;;;;;;;6.75;5.38;;;;;;;;;;5133556;28;20019;-67
2021/09/20 11:37:35;;;;;;;11.02;5.53;;;;;;;;;;5133711;28;20027;-67
2021/09/20 11:40:04;;;;;;;9.40;5.60;;;;;;;;;;5133797;28;20019;-67
2021/09/20 11:42:36;;;;;;;7.32;6.15;;;;;;;;;;5133301;28;20053;-66
2021/09/20 11:45:03;;;;;;;8.87;5.87;;;;;;;;;;5115023;28;20039;-67
2021/09/20 11:47:30;;;;;;;7.47;6.00;;;;;;;;;;5133485;28;20019;-66
2021/09/20 11:50:04;;;;;;;9.35;6.03;;;;;;;;;;5098141;28;20028;-67
2021/09/20 11:52:35;;;;;;;8.13;5.65;;;;;;;;;;5133274;28;20748;-67
2021/09/20 11:55:01;;;;;;;8.18;5.32;;;;;;;;;;5133484;28;20035;-67
2021/09/20 11:57:30;;;;;;;7.15;4.90;;;;;;;;;;5133194;28;20474;-67
2021/09/20 11:59:57;;;;;;;10.20;6.18;;;;;;;;;;5114885;28;20489;-66
2021/09/20 12:02:34;;;;;;;7.85;5.85;;;;;;;;;;5133257;28;20027;-66
2021/09/20 12:05:01;;;;;;;6.45;5.38;;;;;;;;;;5133079;28;20039;-67
2021/09/20 12:07:28;;;;;;;7.18;5.30;;;;;;;;;;5115204;28;20019;-67
2021/09/20 12:09:54;;;;;;;8.13;4.82;;;;;;;;;;5133716;28;20124;-67
2021/09/20 12:12:20;;;;;;;11.73;5.50;;;;;;;;;;5044862;28;20029;-67
2021/09/20 12:14:56;;;;;;;7.40;5.28;;;;;;;;;;5029026;28;20037;-66
2021/09/20 12:17:23;;;;;;;11.43;5.70;;;;;;;;;;5097634;28;20104;-66
2021/09/20 12:19:53;;;;;;;8.85;5.47;;;;;;;;;;5029271;28;20044;-67
2021/09/20 12:22:19;;;;;;;8.57;5.30;;;;;;;;;;5031303;28;20049;-67
2021/09/20 12:24:46;;;;;;;17.40;5.35;;;;;;;;;;5032353;28;20090;-67
2021/09/20 12:27:12;;;;;;;14.13;5.07;;;;;;;;;;5032297;28;20741;-67
2021/09/20 12:29:38;;;;;;;7.18;5.00;;;;;;;;;;5032197;28;20388;-67
2021/09/20 12:32:05;;;;;;;8.52;4.93;;;;;;;;;;5032152;28;20059;-67
2021/09/20 12:34:35;;;;;;;7.15;5.22;;;;;;;;;;5032010;28;20026;-67
2021/09/20 12:37:03;;;;;;;7.90;5.03;;;;;;;;;;5032119;28;20089;-67
2021/09/20 12:39:32;;;;;;;9.32;5.28;;;;;;;;;;5032550;28;20037;-67
2021/09/20 12:42:04;;;;;;;9.85;5.18;;;;;;;;;;5032026;28;20480;-68
2021/09/20 12:44:39;;;;;;;6.78;5.13;;;;;;;;;;5031878;28;20389;-67
2021/09/20 12:47:09;;;;;;;7.97;5.20;;;;;;;;;;5031131;28;20037;-67
2021/09/20 12:49:35;;;;;;;7.72;5.05;;;;;;;;;;5032104;28;20049;-67
2021/09/20 12:52:02;;;;;;;7.22;4.70;;;;;;;;;;5030824;28;20014;-66
2021/09/20 12:54:32;;;;;;;13.20;5.50;;;;;;;;;;5031843;28;20029;-67
2021/09/20 12:57:18;;;;;;;8.27;4.95;;;;;;;;;;5032142;28;20026;-67
2021/09/20 12:59:44;;;;;;;7.35;4.90;;;;;;;;;;5030777;28;20057;-67
2021/09/20 13:02:11;;;;;;;7.80;5.10;;;;;;;;;;5030867;28;20041;-67
2021/09/20 13:04:38;;;;;;;5.40;4.85;;;;;;;;;;5031850;28;20112;-67
2021/09/20 13:07:10;;;;;;;6.95;5.22;;;;;;;;;;5030726;28;20361;-68
2021/09/20 13:09:36;;;;;;;8.38;5.18;;;;;;;;;;5030927;28;20059;-67
2021/09/20 13:12:12;;;;;;;13.15;5.30;;;;;;;;;;5031757;28;20021;-69
2021/09/20 13:14:50;;;;;;;4.85;4.03;;;;;;;;;;5031544;28;20033;-67
2021/09/20 13:17:16;;;;;;;9.70;5.43;;;;;;;;;;5031482;28;20393;-66
2021/09/20 13:20:01;;;;;;;9.52;5.10;;;;;;;;;;5031537;28;20369;-67
2021/09/20 13:22:28;;;;;;;6.53;4.85;;;;;;;;;;5099644;28;20442;-66
2021/09/20 13:24:54;;;;;;;8.93;5.18;;;;;;;;;;5031382;28;20129;-67
2021/09/20 13:27:20;;;;;;;6.20;4.72;;;;;;;;;;5031628;28;20109;-68
2021/09/20 13:29:47;;;;;;;7.63;4.43;;;;;;;;;;5031273;28;20066;-67
2021/09/20 13:32:14;;;;;;;11.18;4.43;;;;;;;;;;5031128;28;20026;-66
2021/09/20 13:34:40;;;;;;;9.32;4.88;;;;;;;;;;5030553;28;20477;-66
2021/09/20 13:37:06;;;;;;;7.50;4.88;;;;;;;;;;5030266;28;20079;-67
2021/09/20 13:39:32;;;;;;;14.13;4.68;;;;;;;;;;5035888;27;20018;-67
2021/09/20 13:41:58;;;;;;;9.75;4.60;;;;;;;;;;5096452;27;20027;-67
2021/09/20 13:44:24;;;;;;;8.38;4.43;;;;;;;;;;5067862;27;20108;-67
2021/09/20 13:46:50;;;;;;;5.25;4.45;;;;;;;;;;5052327;27;20013;-67
2021/09/20 13:49:16;;;;;;;6.57;4.00;;;;;;;;;;5072622;27;20104;-67
2021/09/20 13:51:42;;;;;;;9.70;4.32;;;;;;;;;;5050221;27;20049;-67
2021/09/20 13:54:08;;;;;;;4.68;3.88;;;;;;;;;;5068938;27;20194;-68
2021/09/20 13:56:34;;;;;;;6.63;4.95;;;;;;;;;;5052923;27;20017;-67
2021/09/20 13:59:00;;;;;;;8.20;4.47;;;;;;;;;;5051696;27;20019;-67
2021/09/20 14:01:26;;;;;;;4.72;4.22;;;;;;;;;;5116484;27;20027;-67
2021/09/20 14:03:56;;;;;;;8.82;4.40;;;;;;;;;;5074779;27;20021;-67
2021/09/20 14:06:22;;;;;;;6.95;4.82;;;;;;;;;;5066555;27;20466;-67
2021/09/20 14:08:49;;;;;;;6.93;4.97;;;;;;;;;;5075869;27;20037;-67
2021/09/20 14:11:15;;;;;;;5.65;4.15;;;;;;;;;;5088196;27;20482;-67
2021/09/20 14:13:42;;;;;;;7.32;4.75;;;;;;;;;;5087119;27;20038;-66
2021/09/20 14:16:08;;;;;;;7.38;5.25;;;;;;;;;;5075188;27;20027;-67
2021/09/20 14:18:34;;;;;;;10.80;5.20;;;;;;;;;;5051292;27;20018;-67
2021/09/20 14:21:00;;;;;;;10.10;5.10;;;;;;;;;;5061226;27;20387;-67
2021/09/20 14:23:26;;;;;;;6.72;4.82;;;;;;;;;;5051029;27;20748;-67
2021/09/20 14:25:52;;;;;;;10.65;5.22;;;;;;;;;;5067464;27;20033;-66
2021/09/20 14:28:19;;;;;;;7.22;4.80;;;;;;;;;;5068973;27;20029;-67
2021/09/20 14:30:45;;;;;;;9.95;5.07;;;;;;;;;;5072087;27;20033;-66
2021/09/20 14:33:11;;;;;;;7.35;4.82;;;;;;;;;;5079274;27;20017;-67
2021/09/20 14:35:38;;;;;;;10.27;4.53;;;;;;;;;;5066403;27;20470;-67
2021/09/20 14:38:04;;;;;;;7.85;4.50;;;;;;;;;;5067783;27;20027;-66